createdAt,value
2018-05-11T00:01:23.751Z,96.90
2018-05-11T00:03:00.731Z,96.90
2018-05-11T00:04:37.389Z,96.60
2018-05-11T00:06:14.117Z,96.70
2018-05-11T00:07:51.849Z,96.40
2018-05-11T00:09:28.346Z,96.00
2018-05-11T00:11:05.687Z,95.90
2018-05-11T00:12:42.544Z,95.90
2018-05-11T00:14:18.904Z,95.70
2018-05-11T00:15:55.541Z,95.80
2018-05-11T00:17:31.827Z,95.90
2018-05-11T00:19:08.175Z,96.00
2018-05-11T00:20:44.461Z,96.00
2018-05-11T00:22:21.601Z,95.80
2018-05-11T00:23:59.092Z,95.80
2018-05-11T00:25:35.408Z,95.60
2018-05-11T00:27:12.554Z,95.90
2018-05-11T00:28:49.686Z,95.50
2018-05-11T00:30:26.757Z,95.50
2018-05-11T00:32:03.980Z,96.10
2018-05-11T00:33:40.341Z,96.10
2018-05-11T00:35:16.626Z,96.30
2018-05-11T00:36:53.765Z,96.40
2018-05-11T00:38:30.087Z,96.40
2018-05-11T00:40:06.422Z,96.30
2018-05-11T00:41:42.726Z,96.30
2018-05-11T00:43:19.478Z,96.10
2018-05-11T00:44:55.756Z,96.10
2018-05-11T00:46:32.262Z,96.50
2018-05-11T00:48:08.504Z,96.60
2018-05-11T00:49:46.207Z,96.50
2018-05-11T00:51:22.430Z,96.70
2018-05-11T00:52:59.817Z,96.70
2018-05-11T00:54:36.098Z,97.00
2018-05-11T00:56:12.725Z,96.70
2018-05-11T00:57:49.052Z,96.40
2018-05-11T00:59:25.460Z,96.40
2018-05-11T01:01:01.877Z,96.30
2018-05-11T01:02:38.477Z,96.30
2018-05-11T01:04:15.804Z,96.30
2018-05-11T01:05:52.042Z,96.30
2018-05-11T01:07:29.213Z,96.40
2018-05-11T01:09:07.023Z,96.50
2018-05-11T01:10:43.333Z,96.40
2018-05-11T01:12:19.597Z,96.60
2018-05-11T01:13:55.840Z,96.50
2018-05-11T01:15:32.873Z,96.50
2018-05-11T01:17:09.083Z,96.50
2018-05-11T01:18:45.383Z,96.20
2018-05-11T01:20:21.750Z,96.40
2018-05-11T01:21:58.466Z,96.40
2018-05-11T01:23:34.704Z,96.20
2018-05-11T01:25:11.038Z,96.50
2018-05-11T01:26:47.333Z,96.50
2018-05-11T01:28:24.936Z,96.60
2018-05-11T01:30:01.222Z,96.60
2018-05-11T01:31:40.128Z,96.80
2018-05-11T01:33:17.357Z,97.10
2018-05-11T01:34:53.974Z,97.10
2018-05-11T01:36:30.377Z,97.20
2018-05-11T01:38:10.342Z,97.00
2018-05-11T01:39:47.662Z,97.40
2018-05-11T01:41:24.453Z,97.40
2018-05-11T01:43:01.814Z,97.40
2018-05-11T01:44:38.370Z,97.40
2018-05-11T01:46:14.965Z,97.40
2018-05-11T01:47:52.448Z,97.30
2018-05-11T01:49:29.563Z,97.20
2018-05-11T01:51:05.914Z,97.20
2018-05-11T01:52:42.159Z,97.60
2018-05-11T01:54:19.668Z,96.80
2018-05-11T01:55:56.059Z,96.80
2018-05-11T01:57:32.509Z,97.00
2018-05-11T01:59:08.822Z,97.00
2018-05-11T02:00:45.703Z,97.00
2018-05-11T02:03:57.970Z,96.60
2018-05-11T02:05:34.277Z,96.50
2018-05-11T02:07:10.826Z,97.00
2018-05-11T02:08:48.239Z,96.90
2018-05-11T02:10:24.572Z,96.80
2018-05-11T02:12:00.947Z,97.00
2018-05-11T02:13:37.951Z,97.10
2018-05-11T02:15:15.997Z,97.70
2018-05-11T02:16:53.090Z,97.90
2018-05-11T02:18:29.451Z,97.90
2018-05-11T02:20:06.201Z,97.60
2018-05-11T02:21:42.835Z,97.00
2018-05-11T02:23:19.977Z,96.70
2018-05-11T02:24:56.947Z,97.60
2018-05-11T02:26:34.453Z,97.70
2018-05-11T02:28:11.734Z,97.70
2018-05-11T02:29:48.755Z,98.20
2018-05-11T02:31:25.422Z,98.80
2018-05-11T02:33:01.703Z,98.50
2018-05-11T02:34:37.999Z,98.30
2018-05-11T02:36:14.480Z,98.40
2018-05-11T02:37:50.790Z,98.20
2018-05-11T02:39:28.341Z,98.50
2018-05-11T02:41:04.685Z,98.30
2018-05-11T02:44:22.899Z,98.40
2018-05-11T02:45:59.710Z,98.40
2018-05-11T02:47:36.968Z,98.50
2018-05-11T02:49:13.281Z,98.40
2018-05-11T02:50:49.629Z,98.40
2018-05-11T02:52:26.421Z,98.60
2018-05-11T02:54:02.825Z,98.60
2018-05-11T02:55:39.898Z,98.40
2018-05-11T02:57:16.113Z,98.40
2018-05-11T02:58:52.757Z,98.60
2018-05-11T03:00:29.488Z,98.40
2018-05-11T03:02:05.765Z,98.40
2018-05-11T03:03:42.910Z,98.40
2018-05-11T03:05:19.657Z,98.40
2018-05-11T03:06:56.742Z,98.40
2018-05-11T03:08:33.391Z,98.20
2018-05-11T03:10:09.881Z,98.30
2018-05-11T03:11:46.782Z,98.40
2018-05-11T03:13:23.014Z,98.70
2018-05-11T03:14:59.306Z,98.90
2018-05-11T03:16:36.593Z,98.70
2018-05-11T03:18:12.927Z,98.70
2018-05-11T03:19:49.285Z,98.70
2018-05-11T03:21:27.252Z,98.40
2018-05-11T03:23:03.612Z,98.90
2018-05-11T03:24:40.404Z,98.60
2018-05-11T03:26:17.739Z,98.60
2018-05-11T03:27:54.910Z,98.40
2018-05-11T03:29:32.072Z,98.10
2018-05-11T03:31:09.041Z,98.10
2018-05-11T03:32:45.649Z,98.30
2018-05-11T03:34:22.805Z,98.60
2018-05-11T03:35:59.650Z,98.50
2018-05-11T03:37:36.458Z,99.00
2018-05-11T03:39:12.749Z,99.20
2018-05-11T03:40:50.535Z,98.50
2018-05-11T03:42:26.819Z,98.40
2018-05-11T03:44:04.319Z,98.30
2018-05-11T03:45:40.796Z,98.40
2018-05-11T03:48:58.374Z,98.50
2018-05-11T03:50:35.723Z,99.10
2018-05-11T03:52:12.021Z,99.10
2018-05-11T03:53:49.017Z,98.90
2018-05-11T03:55:25.260Z,98.90
2018-05-11T03:57:02.982Z,98.70
2018-05-11T03:58:39.262Z,98.70
2018-05-11T04:00:17.499Z,99.00
2018-05-11T04:06:17.623Z,98.60
2018-05-11T04:08:58.609Z,99.30
2018-05-11T04:10:35.307Z,99.10
2018-05-11T04:12:12.424Z,99.50
2018-05-11T04:13:48.687Z,99.50
2018-05-11T04:15:25.132Z,99.90
2018-05-11T04:17:01.855Z,99.80
2018-05-11T04:18:38.239Z,99.70
2018-05-11T04:20:14.805Z,99.90
2018-05-11T04:21:52.050Z,99.90
2018-05-11T04:23:28.949Z,99.90
2018-05-11T04:25:05.428Z,99.50
2018-05-11T04:26:41.647Z,99.30
2018-05-11T04:28:17.982Z,99.20
2018-05-11T04:29:54.824Z,99.20
2018-05-11T04:31:31.448Z,99.00
2018-05-11T04:33:07.783Z,98.70
2018-05-11T04:34:44.919Z,97.50
2018-05-11T04:36:24.142Z,97.50
2018-05-11T04:38:02.450Z,97.60
2018-05-11T04:39:39.774Z,96.80
2018-05-11T04:41:17.113Z,96.70
2018-05-11T04:42:53.354Z,96.80
2018-05-11T04:44:30.558Z,97.80
2018-05-11T04:46:07.436Z,97.90
2018-05-11T04:47:43.677Z,97.80
2018-05-11T04:49:21.654Z,97.40
2018-05-11T04:51:00.854Z,97.40
2018-05-11T04:52:38.578Z,96.70
2018-05-11T04:54:14.897Z,96.00
2018-05-11T04:55:51.673Z,95.50
2018-05-11T04:57:29.081Z,95.00
2018-05-11T04:59:05.417Z,95.00
2018-05-11T05:00:41.856Z,94.30
2018-05-11T05:02:18.191Z,93.60
2018-05-11T05:03:54.532Z,93.40
2018-05-11T05:05:31.672Z,93.00
2018-05-11T05:07:08.006Z,93.00
2018-05-11T05:08:44.994Z,93.20
2018-05-11T05:10:21.951Z,93.00
2018-05-11T05:11:59.038Z,92.30
2018-05-11T05:13:36.277Z,91.90
2018-05-11T05:15:14.211Z,91.90
2018-05-11T05:16:51.206Z,92.00
2018-05-11T05:18:27.546Z,92.10
2018-05-11T05:20:03.805Z,91.60
2018-05-11T05:21:40.656Z,91.50
2018-05-11T05:23:18.745Z,91.60
2018-05-11T05:24:55.002Z,91.30
2018-05-11T05:28:10.566Z,90.80
2018-05-11T05:29:47.003Z,91.70
2018-05-11T05:31:24.637Z,93.00
2018-05-11T05:33:01.062Z,93.00
2018-05-11T05:34:37.930Z,92.20
2018-05-11T05:36:14.376Z,91.90
2018-05-11T05:37:51.605Z,92.30
2018-05-11T05:39:28.351Z,92.30
2018-05-11T05:41:07.972Z,92.10
2018-05-11T05:42:44.575Z,92.40
2018-05-11T05:44:20.914Z,92.90
2018-05-11T05:45:57.491Z,92.30
2018-05-11T05:47:33.867Z,92.10
2018-05-11T05:49:10.161Z,92.30
2018-05-11T05:50:46.705Z,92.90
2018-05-11T05:52:23.078Z,92.80
2018-05-11T05:53:59.405Z,92.70
2018-05-11T05:55:35.853Z,93.40
2018-05-11T05:57:13.062Z,92.30
2018-05-11T05:58:50.961Z,92.30
2018-05-11T06:00:29.393Z,91.80
2018-05-11T06:02:05.691Z,91.80
2018-05-11T06:03:42.074Z,91.00
2018-05-11T06:05:19.558Z,90.60
2018-05-11T06:06:55.869Z,90.60
2018-05-11T06:08:32.177Z,90.00
2018-05-11T06:10:15.721Z,91.70
2018-05-11T06:11:52.513Z,94.10
2018-05-11T06:24:13.303Z,94.60
2018-05-11T06:25:49.694Z,94.60
2018-05-11T06:27:26.003Z,93.80
2018-05-11T06:29:02.915Z,93.20
2018-05-11T06:30:39.534Z,92.80
2018-05-11T06:32:16.659Z,94.80
2018-05-11T06:33:52.946Z,94.80
2018-05-11T06:35:29.896Z,95.50
2018-05-11T06:37:06.697Z,96.40
2018-05-11T06:38:43.876Z,95.90
2018-05-11T06:40:20.273Z,95.90
2018-05-11T06:41:57.055Z,96.10
2018-05-11T06:43:33.330Z,96.20
2018-05-11T06:45:10.031Z,96.60
2018-05-11T06:46:47.790Z,96.50
2018-05-11T06:48:25.383Z,96.80
2018-05-11T06:50:02.386Z,96.30
2018-05-11T06:51:38.758Z,96.30
2018-05-11T06:53:15.040Z,96.00
2018-05-11T06:54:51.952Z,96.20
2018-05-11T06:56:29.410Z,96.30
2018-05-11T06:58:06.107Z,96.30
2018-05-11T06:59:42.522Z,95.90
2018-05-11T07:01:19.509Z,95.80
2018-05-11T07:02:55.792Z,96.00
2018-05-11T07:04:32.045Z,96.30
2018-05-11T07:06:08.393Z,95.80
2018-05-11T07:07:44.780Z,94.70
2018-05-11T07:09:21.012Z,94.00
2018-05-11T07:10:57.403Z,94.50
2018-05-11T07:12:34.491Z,93.20
2018-05-11T07:14:10.858Z,93.20
2018-05-11T07:15:48.266Z,94.70
2018-05-11T07:17:24.760Z,94.70
2018-05-11T07:19:01.716Z,95.10
2018-05-11T07:20:37.989Z,95.70
2018-05-11T07:22:14.318Z,95.80
2018-05-11T07:23:50.710Z,95.90
2018-05-11T07:25:27.538Z,94.90
2018-05-11T07:27:03.953Z,94.70
2018-05-11T07:28:40.598Z,94.80
2018-05-11T07:30:17.353Z,94.80
2018-05-11T07:31:54.145Z,94.50
2018-05-11T07:33:30.507Z,93.90
2018-05-11T07:35:06.870Z,91.90
2018-05-11T07:36:43.200Z,90.40
2018-05-11T07:38:20.613Z,89.90
2018-05-11T07:39:57.069Z,90.50
2018-05-11T07:41:33.448Z,92.10
2018-05-11T07:43:09.888Z,93.60
2018-05-11T07:44:46.562Z,94.30
2018-05-11T07:46:24.120Z,93.50
2018-05-11T07:48:05.118Z,93.50
2018-05-11T07:49:41.721Z,92.60
2018-05-11T07:51:18.550Z,91.40
2018-05-11T07:52:55.644Z,90.30
2018-05-11T07:54:32.016Z,90.30
2018-05-11T07:56:08.476Z,90.20
2018-05-11T07:57:45.308Z,88.20
2018-05-11T07:59:21.677Z,87.20
2018-05-11T08:00:59.299Z,89.70
2018-05-11T08:02:36.774Z,87.50
2018-05-11T08:04:13.529Z,87.50
2018-05-11T08:05:49.921Z,87.00
2018-05-11T08:07:27.008Z,86.00
2018-05-11T08:09:03.893Z,86.00
2018-05-11T08:10:40.682Z,87.20
2018-05-11T08:12:16.993Z,86.80
2018-05-11T08:13:54.082Z,88.70
2018-05-11T08:15:30.972Z,88.70
2018-05-11T08:17:07.862Z,89.00
2018-05-11T08:18:44.214Z,89.70
2018-05-11T08:20:20.664Z,90.60
2018-05-11T08:21:56.987Z,91.20
2018-05-11T08:23:34.044Z,92.70
2018-05-11T08:25:10.407Z,92.70
2018-05-11T08:26:46.970Z,92.20
2018-05-11T08:28:23.137Z,91.00
2018-05-11T08:30:05.082Z,90.90
2018-05-11T08:31:41.893Z,90.90
2018-05-11T08:33:18.447Z,91.00
2018-05-11T08:34:54.739Z,91.30
2018-05-11T08:36:31.898Z,90.90
2018-05-11T08:38:08.451Z,90.50
2018-05-11T08:39:44.760Z,90.20
2018-05-11T08:41:21.987Z,90.90
2018-05-11T08:42:58.708Z,90.90
2018-05-11T08:44:36.212Z,89.20
2018-05-11T08:46:12.765Z,89.20
2018-05-11T08:47:49.054Z,87.90
2018-05-11T08:49:25.794Z,89.60
2018-05-11T08:51:02.150Z,90.80
2018-05-11T08:52:39.931Z,91.00
2018-05-11T08:54:16.256Z,90.90
2018-05-11T08:55:53.168Z,90.60
2018-05-11T08:57:29.565Z,90.40
2018-05-11T08:59:06.012Z,89.10
2018-05-11T09:00:43.507Z,87.00
2018-05-11T09:02:20.346Z,87.00
2018-05-11T09:03:56.722Z,86.60
2018-05-11T09:05:33.177Z,86.80
2018-05-11T09:07:09.575Z,86.40
2018-05-11T09:08:45.995Z,87.50
2018-05-11T09:10:22.386Z,87.40
2018-05-11T09:11:59.478Z,90.80
2018-05-11T09:13:36.657Z,90.80
2018-05-11T09:15:15.137Z,90.80
2018-05-11T09:16:51.565Z,90.10
2018-05-11T09:18:27.903Z,86.30
2018-05-11T09:20:05.055Z,86.70
2018-05-11T09:21:42.773Z,87.30
2018-05-11T09:23:19.171Z,87.40
2018-05-11T09:24:55.521Z,89.50
2018-05-11T09:26:31.931Z,91.30
2018-05-11T09:28:08.720Z,91.70
2018-05-11T09:29:45.127Z,91.50
2018-05-11T09:31:21.746Z,91.20
2018-05-11T09:32:58.215Z,90.70
2018-05-11T09:34:34.995Z,90.10
2018-05-11T09:37:42.302Z,90.30
2018-05-11T09:39:18.935Z,90.30
2018-05-11T09:40:55.549Z,88.40
2018-05-11T09:42:31.954Z,86.40
2018-05-11T09:44:08.371Z,87.40
2018-05-11T09:45:45.837Z,89.40
2018-05-11T09:47:23.253Z,91.40
2018-05-11T09:48:59.554Z,91.70
2018-05-11T09:50:37.327Z,90.90
2018-05-11T09:52:13.614Z,90.50
2018-05-11T09:53:50.329Z,89.00
2018-05-11T09:55:26.685Z,88.70
2018-05-11T09:57:02.909Z,86.70
2018-05-11T09:58:39.937Z,84.00
2018-05-11T10:00:22.278Z,84.00
2018-05-11T10:01:59.695Z,83.00
2018-05-11T10:03:36.952Z,83.80
2018-05-11T10:05:13.781Z,84.90
2018-05-11T10:06:50.115Z,87.20
2018-05-11T10:08:26.375Z,88.30
2018-05-11T10:10:02.688Z,87.20
2018-05-11T10:11:39.462Z,86.10
2018-05-11T10:13:15.782Z,82.50
2018-05-11T10:14:53.193Z,82.30
2018-05-11T10:16:29.998Z,83.80
2018-05-11T10:18:07.549Z,85.90
2018-05-11T10:19:43.986Z,85.90
2018-05-11T10:21:20.952Z,85.10
2018-05-11T10:22:57.438Z,85.50
2018-05-11T10:24:34.856Z,84.90
2018-05-11T10:26:11.339Z,86.30
2018-05-11T10:27:47.670Z,83.60
2018-05-11T10:29:24.306Z,81.30
2018-05-11T10:31:02.213Z,80.10
2018-05-11T10:32:38.731Z,80.60
2018-05-11T10:34:15.754Z,79.20
2018-05-11T10:35:52.833Z,78.40
2018-05-11T10:37:31.514Z,78.40
2018-05-11T10:39:08.529Z,78.50
2018-05-11T10:40:45.051Z,78.50
2018-05-11T10:42:21.391Z,77.80
2018-05-11T10:43:58.589Z,76.80
2018-05-11T10:45:35.334Z,74.00
2018-05-11T10:47:11.589Z,72.50
2018-05-11T10:48:48.366Z,72.30
2018-05-11T10:50:26.055Z,74.60
2018-05-11T10:52:02.402Z,74.50
2018-05-11T10:53:39.642Z,77.20
2018-05-11T10:55:16.026Z,75.60
2018-05-11T10:56:53.900Z,78.00
2018-05-11T10:58:32.143Z,76.70
2018-05-11T11:00:09.216Z,76.70
2018-05-11T11:01:47.625Z,76.10
2018-05-11T11:03:23.984Z,76.10
2018-05-11T11:05:00.237Z,74.50
2018-05-11T11:08:16.228Z,76.20
2018-05-11T11:09:52.566Z,77.50
2018-05-11T11:11:29.875Z,74.10
2018-05-11T11:13:07.110Z,72.30
2018-05-11T11:14:46.511Z,72.30
2018-05-11T11:16:24.175Z,74.60
2018-05-11T11:18:00.557Z,74.50
2018-05-11T11:21:09.136Z,75.90
2018-05-11T11:22:45.807Z,76.30
2018-05-11T11:24:22.154Z,75.60
2018-05-11T11:25:58.520Z,73.80
2018-05-11T11:27:35.340Z,73.10
2018-05-11T11:29:11.734Z,74.30
2018-05-11T11:30:48.410Z,76.60
2018-05-11T11:32:24.691Z,77.20
2018-05-11T11:34:01.419Z,77.30
2018-05-11T11:35:38.482Z,70.20
2018-05-11T11:37:14.711Z,70.10
2018-05-11T11:38:51.120Z,68.30
2018-05-11T11:40:27.996Z,66.40
2018-05-11T11:42:04.340Z,64.70
2018-05-11T11:43:40.577Z,66.60
2018-05-11T11:45:19.345Z,68.60
2018-05-11T11:46:56.687Z,68.60
2018-05-11T11:48:32.998Z,68.70
2018-05-11T11:50:10.055Z,72.10
2018-05-11T11:51:46.268Z,72.10
2018-05-11T11:53:22.962Z,72.40
2018-05-11T11:54:59.981Z,73.90
2018-05-11T11:56:36.237Z,73.50
2018-05-11T11:58:12.614Z,74.10
2018-05-11T11:59:49.412Z,71.10
2018-05-11T12:01:27.065Z,71.60
2018-05-11T12:03:05.204Z,71.70
2018-05-11T12:04:41.645Z,71.70
2018-05-11T12:06:24.872Z,72.50
2018-05-11T12:08:01.218Z,72.50
2018-05-11T12:09:37.530Z,69.10
2018-05-11T12:11:14.610Z,65.30
2018-05-11T12:12:51.161Z,65.20
2018-05-11T12:14:27.399Z,66.50
2018-05-11T12:16:04.489Z,69.00
2018-05-11T12:17:40.839Z,66.80
2018-05-11T12:19:17.657Z,66.50
2018-05-11T12:32:55.059Z,67.20
2018-05-11T12:34:31.343Z,66.80
2018-05-11T12:36:08.998Z,65.50
2018-05-11T12:37:45.817Z,65.60
2018-05-11T12:39:22.054Z,65.50
2018-05-11T12:40:59.166Z,66.40
2018-05-11T12:42:35.489Z,66.50
2018-05-11T12:44:13.094Z,63.60
2018-05-11T12:45:49.552Z,63.60
2018-05-11T12:47:26.600Z,60.00
2018-05-11T12:49:02.894Z,60.00
2018-05-11T12:50:39.567Z,56.40
2018-05-11T12:52:15.923Z,59.00
2018-05-11T12:53:52.280Z,58.40
2018-05-11T12:55:29.335Z,57.00
2018-05-11T12:57:07.549Z,57.00
2018-05-11T12:58:43.901Z,56.90
2018-05-11T13:00:20.247Z,56.00
2018-05-11T13:01:57.607Z,56.10
2018-05-11T13:03:35.155Z,58.40
2018-05-11T13:05:12.878Z,58.40
2018-05-11T13:06:49.251Z,58.10
2018-05-11T13:08:25.621Z,56.10
2018-05-11T13:10:03.299Z,55.20
2018-05-11T13:11:39.691Z,55.20
2018-05-11T13:13:16.018Z,55.60
2018-05-11T13:14:52.287Z,56.60
2018-05-11T13:16:28.709Z,57.20
2018-05-11T13:18:05.089Z,57.00
2018-05-11T13:19:42.198Z,57.20
2018-05-11T13:21:19.403Z,57.20
2018-05-11T13:22:55.718Z,56.60
2018-05-11T13:24:32.235Z,57.30
2018-05-11T13:26:09.167Z,57.60
2018-05-11T13:27:45.896Z,56.40
2018-05-11T13:29:22.319Z,55.30
2018-05-11T13:30:58.984Z,55.70
2018-05-11T13:32:35.250Z,56.40
2018-05-11T13:34:12.069Z,57.20
2018-05-11T13:35:49.565Z,56.70
2018-05-11T13:37:26.812Z,55.80
2018-05-11T13:39:03.058Z,55.80
2018-05-11T13:40:39.766Z,55.60
2018-05-11T13:42:16.071Z,56.00
2018-05-11T13:43:52.569Z,54.80
2018-05-11T13:45:29.713Z,54.50
2018-05-11T13:47:06.387Z,54.00
2018-05-11T13:48:42.780Z,54.40
2018-05-11T13:50:19.117Z,55.00
2018-05-11T13:51:55.412Z,54.00
2018-05-11T13:53:32.054Z,52.40
2018-05-11T13:55:08.582Z,52.70
2018-05-11T13:56:45.825Z,53.70
2018-05-11T13:58:22.631Z,53.70
2018-05-11T14:00:00.263Z,54.60
2018-05-11T14:01:37.077Z,54.60
2018-05-11T14:03:13.526Z,55.00
2018-05-11T14:04:50.007Z,54.50
2018-05-11T14:06:26.804Z,54.40
2018-05-11T14:08:03.249Z,54.50
2018-05-11T14:09:39.732Z,54.90
2018-05-11T14:11:16.077Z,54.30
2018-05-11T14:12:52.808Z,54.20
2018-05-11T14:14:29.067Z,53.90
2018-05-11T14:16:06.598Z,54.40
2018-05-11T14:17:42.905Z,54.10
2018-05-11T14:19:20.462Z,55.20
2018-05-11T14:20:56.865Z,55.30
2018-05-11T14:22:33.897Z,53.20
2018-05-11T14:24:10.887Z,53.20
2018-05-11T14:25:48.306Z,53.50
2018-05-11T14:27:24.684Z,53.60
2018-05-11T14:29:00.931Z,53.60
2018-05-11T14:30:37.477Z,52.60
2018-05-11T14:32:14.206Z,52.70
2018-05-11T14:33:51.388Z,52.60
2018-05-11T14:35:27.721Z,52.60
2018-05-11T14:37:04.101Z,51.60
2018-05-11T14:38:42.856Z,50.30
2018-05-11T14:40:19.301Z,49.80
2018-05-11T14:41:55.586Z,49.30
2018-05-11T14:43:32.043Z,50.70
2018-05-11T14:45:10.387Z,49.00
2018-05-11T14:46:47.222Z,49.10
2018-05-11T14:48:23.688Z,48.70
2018-05-11T14:50:00.217Z,47.50
2018-05-11T14:51:36.821Z,47.50
2018-05-11T14:53:13.291Z,48.40
2018-05-11T14:54:49.654Z,47.60
2018-05-11T14:56:26.589Z,48.10
2018-05-11T14:58:04.386Z,49.20
2018-05-11T14:59:40.777Z,49.80
2018-05-11T15:01:17.560Z,49.80
2018-05-11T15:02:53.825Z,49.30
2018-05-11T15:04:30.398Z,50.60
2018-05-11T15:06:06.915Z,49.90
2018-05-11T15:07:43.193Z,51.10
2018-05-11T15:09:19.761Z,51.50
2018-05-11T15:10:56.437Z,51.50
2018-05-11T15:12:33.623Z,51.10
2018-05-11T15:14:11.797Z,51.10
2018-05-11T15:15:48.338Z,51.30
2018-05-11T15:17:25.134Z,51.10
2018-05-11T15:19:02.460Z,51.30
2018-05-11T15:20:45.590Z,51.20
2018-05-11T15:22:21.931Z,51.40
2018-05-11T15:23:59.302Z,50.10
2018-05-11T15:25:43.421Z,50.70
2018-05-11T15:27:19.995Z,50.70
2018-05-11T15:28:56.353Z,50.50
2018-05-11T15:30:33.359Z,50.20
2018-05-11T15:32:12.422Z,51.30
2018-05-11T15:33:56.222Z,50.60
2018-05-11T15:35:32.579Z,50.00
2018-05-11T15:37:09.165Z,51.10
2018-05-11T15:38:46.363Z,50.50
2018-05-11T15:40:23.516Z,51.10
2018-05-11T15:41:59.920Z,51.20
2018-05-11T15:43:36.544Z,50.30
2018-05-11T15:45:15.532Z,51.30
2018-05-11T15:46:52.364Z,51.40
2018-05-11T15:48:29.043Z,51.20
2018-05-11T15:50:06.727Z,52.40
2018-05-11T15:51:43.503Z,52.40
2018-05-11T15:53:21.262Z,52.70
2018-05-11T15:54:58.235Z,51.90
2018-05-11T15:56:36.985Z,51.60
2018-05-11T15:58:13.951Z,51.70
2018-05-11T15:59:50.489Z,51.20
2018-05-11T16:01:26.994Z,50.10
2018-05-11T16:03:03.606Z,50.70
2018-05-11T16:04:39.932Z,50.90
2018-05-11T16:06:17.030Z,50.90
2018-05-11T16:07:54.278Z,50.70
2018-05-11T16:09:30.515Z,50.70
2018-05-11T16:11:06.867Z,50.50
2018-05-11T16:12:43.280Z,51.70
2018-05-11T16:14:20.460Z,50.10
2018-05-11T16:15:58.101Z,50.20
2018-05-11T16:17:34.756Z,50.20
2018-05-11T16:19:12.198Z,50.20
2018-05-11T16:20:50.805Z,49.70
2018-05-11T16:22:27.553Z,50.60
2018-05-11T16:24:04.882Z,49.90
2018-05-11T16:25:42.077Z,51.10
2018-05-11T16:27:18.471Z,51.10
2018-05-11T16:28:55.209Z,51.90
2018-05-11T16:30:32.471Z,52.00
2018-05-11T16:32:09.694Z,52.00
2018-05-11T16:33:46.819Z,51.80
2018-05-11T16:35:23.392Z,51.80
2018-05-11T16:37:01.070Z,51.60
2018-05-11T16:38:37.369Z,51.60
2018-05-11T16:40:13.705Z,51.60
2018-05-11T16:41:50.219Z,51.70
2018-05-11T16:43:27.315Z,52.60
2018-05-11T16:45:03.696Z,52.70
2018-05-11T16:46:40.603Z,52.30
2018-05-11T16:48:17.132Z,52.40
2018-05-11T16:49:53.527Z,51.70
2018-05-11T16:51:29.898Z,51.70
2018-05-11T16:53:06.635Z,51.70
2018-05-11T16:54:43.019Z,52.00
2018-05-11T16:56:19.322Z,52.20
2018-05-11T16:57:56.540Z,52.10
2018-05-11T16:59:32.834Z,52.10
2018-05-11T17:01:09.436Z,52.40
2018-05-11T17:02:46.532Z,52.40
2018-05-11T17:04:23.165Z,52.40
2018-05-11T17:05:59.452Z,52.60
2018-05-11T17:07:36.688Z,52.40
2018-05-11T17:09:14.153Z,52.40
2018-05-11T17:10:50.974Z,51.60
2018-05-11T17:12:27.517Z,52.00
2018-05-11T17:14:03.911Z,51.40
2018-05-11T17:15:41.554Z,52.30
2018-05-11T17:17:20.217Z,52.60
2018-05-11T17:18:57.615Z,53.20
2018-05-11T17:20:33.952Z,53.20
2018-05-11T17:22:11.186Z,53.10
2018-05-11T17:23:47.936Z,53.10
2018-05-11T17:25:24.273Z,53.40
2018-05-11T17:27:00.565Z,53.50
2018-05-11T17:28:37.177Z,53.90
2018-05-11T17:30:14.994Z,53.70
2018-05-11T17:31:51.696Z,53.50
2018-05-11T17:33:28.907Z,53.50
2018-05-11T17:35:05.643Z,53.50
2018-05-11T17:36:42.805Z,54.00
2018-05-11T17:38:19.150Z,54.10
2018-05-11T17:39:55.619Z,54.10
2018-05-11T17:41:32.434Z,54.30
2018-05-11T17:43:09.065Z,54.40
2018-05-11T17:44:45.562Z,54.20
2018-05-11T17:46:22.941Z,54.80
2018-05-11T17:48:02.611Z,54.80
2018-05-11T17:49:38.908Z,54.70
2018-05-11T17:51:15.172Z,55.00
2018-05-11T17:52:51.789Z,55.20
2018-05-11T17:54:28.165Z,54.70
2018-05-11T17:56:05.171Z,55.10
2018-05-11T17:57:41.591Z,55.10
2018-05-11T17:59:18.229Z,55.30
2018-05-11T18:00:55.166Z,54.40
2018-05-11T18:02:31.945Z,55.00
2018-05-11T18:04:08.534Z,54.70
2018-05-11T18:05:45.973Z,53.80
2018-05-11T18:07:22.399Z,53.80
2018-05-11T18:08:59.200Z,54.30
2018-05-11T18:10:35.546Z,54.60
2018-05-11T18:12:12.212Z,54.80
2018-05-11T18:13:48.628Z,55.10
2018-05-11T18:15:26.730Z,55.40
2018-05-11T18:17:03.086Z,55.80
2018-05-11T18:18:39.422Z,56.00
2018-05-11T18:20:15.940Z,56.30
2018-05-11T18:21:52.476Z,56.20
2018-05-11T18:23:28.932Z,56.00
2018-05-11T18:25:05.696Z,56.00
2018-05-11T18:26:42.094Z,56.00
2018-05-11T18:28:18.461Z,56.00
2018-05-11T18:29:54.829Z,56.30
2018-05-11T18:31:31.952Z,56.10
2018-05-11T18:33:08.489Z,55.90
2018-05-11T18:34:45.683Z,56.50
2018-05-11T18:36:26.437Z,56.10
2018-05-11T18:38:04.312Z,58.70
2018-05-11T18:39:40.900Z,65.30
2018-05-11T18:41:18.239Z,70.30
2018-05-11T18:42:54.745Z,70.30
2018-05-11T18:44:32.362Z,72.00
2018-05-11T18:46:09.194Z,73.90
2018-05-11T18:47:46.555Z,75.40
2018-05-11T18:49:23.820Z,78.40
2018-05-11T18:51:01.049Z,79.00
2018-05-11T18:52:37.559Z,79.00
2018-05-11T18:54:14.805Z,79.50
2018-05-11T18:55:52.155Z,81.40
2018-05-11T18:57:28.842Z,81.40
2018-05-11T18:59:05.292Z,81.80
2018-05-11T19:00:42.427Z,82.40
2018-05-11T19:02:19.164Z,83.20
2018-05-11T19:03:55.663Z,83.30
2018-05-11T19:05:31.987Z,84.50
2018-05-11T19:07:08.415Z,85.30
2018-05-11T19:08:47.093Z,85.80
2018-05-11T19:10:23.578Z,86.30
2018-05-11T19:12:00.008Z,86.30
2018-05-11T19:13:36.364Z,87.50
2018-05-11T19:15:12.928Z,87.50
2018-05-11T19:16:50.512Z,87.70
2018-05-11T19:18:30.417Z,87.80
2018-05-11T19:20:07.348Z,87.90
2018-05-11T19:21:43.923Z,88.60
2018-05-11T19:23:20.265Z,89.10
2018-05-11T19:24:56.655Z,89.40
2018-05-11T19:26:33.385Z,89.80
2018-05-11T19:28:10.514Z,90.10
2018-05-11T19:29:46.975Z,90.10
2018-05-11T19:31:23.543Z,90.20
2018-05-11T19:33:00.433Z,90.30
2018-05-11T19:34:36.799Z,90.50
2018-05-11T19:36:13.208Z,90.50
2018-05-11T19:37:49.673Z,90.40
2018-05-11T19:39:26.027Z,90.50
2018-05-11T19:41:02.512Z,90.60
2018-05-11T19:42:38.835Z,90.20
2018-05-11T19:44:16.413Z,90.60
2018-05-11T19:45:53.041Z,90.60
2018-05-11T19:47:29.395Z,90.90
2018-05-11T19:49:05.881Z,91.20
2018-05-11T19:50:42.803Z,91.30
2018-05-11T19:52:19.421Z,91.20
2018-05-11T19:53:55.873Z,91.10
2018-05-11T19:55:34.237Z,91.10
2018-05-11T19:57:11.843Z,90.60
2018-05-11T19:58:48.807Z,90.50
2018-05-11T20:00:29.155Z,91.00
2018-05-11T20:02:06.516Z,91.00
2018-05-11T20:03:42.794Z,91.20
2018-05-11T20:05:19.110Z,91.40
2018-05-11T20:06:55.491Z,91.50
2018-05-11T20:08:32.435Z,91.50
2018-05-11T20:10:09.143Z,91.60
2018-05-11T20:11:46.722Z,91.70
2018-05-11T20:13:25.130Z,91.60
2018-05-11T20:15:03.663Z,91.60
2018-05-11T20:16:40.147Z,91.60
2018-05-11T20:18:16.717Z,91.60
2018-05-11T20:19:53.888Z,91.50
2018-05-11T20:21:30.730Z,91.40
2018-05-11T20:23:07.138Z,91.40
2018-05-11T20:24:44.406Z,91.30
2018-05-11T20:26:20.975Z,91.30
2018-05-11T20:27:57.937Z,91.20
2018-05-11T20:29:34.424Z,91.00
2018-05-11T20:31:11.031Z,91.10
2018-05-11T20:32:47.540Z,91.50
2018-05-11T20:34:24.309Z,91.20
2018-05-11T20:36:00.772Z,90.90
2018-05-11T20:37:37.322Z,90.70
2018-05-11T20:39:13.687Z,90.70
2018-05-11T20:40:50.446Z,90.40
2018-05-11T20:42:26.886Z,90.60
2018-05-11T20:44:04.002Z,90.50
2018-05-11T20:45:40.645Z,90.50
2018-05-11T20:47:17.442Z,90.30
2018-05-11T20:48:53.850Z,90.10
2018-05-11T20:50:30.476Z,90.10
2018-05-11T20:52:06.839Z,90.30
2018-05-11T20:53:43.683Z,90.50
2018-05-11T20:55:20.570Z,90.40
2018-05-11T20:56:56.966Z,90.50
2018-05-11T20:58:34.270Z,90.60
2018-05-11T21:00:10.962Z,90.50
2018-05-11T21:01:47.529Z,90.50
2018-05-11T21:03:23.838Z,90.20
2018-05-11T21:05:00.369Z,90.30
2018-05-11T21:06:37.238Z,90.20
2018-05-11T21:08:13.831Z,90.20
2018-05-11T21:09:50.132Z,90.40
2018-05-11T21:11:26.689Z,90.50
2018-05-11T21:13:03.426Z,90.40
2018-05-11T21:14:39.814Z,90.50
2018-05-11T21:16:18.023Z,90.70
2018-05-11T21:17:54.381Z,90.60
2018-05-11T21:19:31.368Z,90.50
2018-05-11T21:21:08.502Z,90.70
2018-05-11T21:22:44.870Z,91.00
2018-05-11T21:24:22.245Z,90.60
2018-05-11T21:25:59.065Z,90.50
2018-05-11T21:27:36.140Z,90.50